Time,TemperatureF,DewpointF,PressureIn,WindDirection,WindDirectionDegrees,WindSpeedMPH,WindSpeedGustMPH,Humidity,HourlyPrecipIn,Conditions,Clouds,dailyrainin,SolarRadiationWatts/m^2,SoftwareType,DateUTC
2013-06-01 00:01:00,49.0,24.0,30.21,SSW,199,13.0,16.0,38,-99.99,,,-99.99,-0.100000,,2013-06-01 06:01:00,
2013-06-01 00:12:00,49.0,24.0,30.21,SSW,199,13.0,15.0,36,-99.99,,,-99.99,-0.100000,,2013-06-01 06:12:00,
2013-06-01 00:22:00,49.0,24.0,30.21,SSW,197,14.0,16.0,38,-99.99,,,-99.99,0.000000,,2013-06-01 06:22:00,
2013-06-01 00:32:00,49.0,23.0,30.21,SSW,198,14.0,16.0,36,-99.99,,,-99.99,-0.100000,,2013-06-01 06:32:00,
2013-06-01 00:41:00,50.0,23.0,30.21,SSW,198,14.0,17.0,34,-99.99,,,-99.99,0.000000,,2013-06-01 06:41:00,
2013-06-01 00:51:00,50.0,24.0,30.22,SSW,204,13.0,15.0,37,-99.99,,,-99.99,-0.100000,,2013-06-01 06:51:00,
2013-06-01 01:01:00,47.0,27.0,30.22,SSW,204,11.0,11.0,45,-99.99,,,-99.99,-0.100000,,2013-06-01 07:01:00,
2013-06-01 01:11:00,46.0,28.0,30.22,SSW,203,11.0,12.0,49,-99.99,,,-99.99,0.000000,,2013-06-01 07:11:00,
2013-06-01 01:21:00,45.0,28.0,30.22,SSW,202,11.0,12.0,51,-99.99,,,-99.99,-0.100000,,2013-06-01 07:21:00,
2013-06-01 01:31:00,46.0,26.0,30.22,SSW,204,13.0,15.0,46,-99.99,,,-99.99,-0.100000,,2013-06-01 07:31:00,
2013-06-01 01:41:00,46.0,27.0,30.22,SSW,204,12.0,13.0,47,-99.99,,,-99.99,-0.100000,,2013-06-01 07:41:00,
2013-06-01 01:52:00,47.0,26.0,30.22,SSW,207,13.0,15.0,44,-99.99,,,-99.99,-0.100000,,2013-06-01 07:52:00,
2013-06-01 02:02:00,47.0,26.0,30.22,SSW,204,13.0,15.0,43,-99.99,,,-99.99,-0.100000,,2013-06-01 08:02:00,
2013-06-01 02:11:00,47.0,25.0,30.22,SSW,198,11.0,13.0,43,-99.99,,,-99.99,-0.100000,,2013-06-01 08:11:00,
2013-06-01 02:21:00,46.0,26.0,30.22,South,191,13.0,16.0,44,-99.99,,,-99.99,-0.100000,,2013-06-01 08:21:00,
2013-06-01 02:32:00,47.0,27.0,30.22,SSW,201,14.0,15.0,45,-99.99,,,-99.99,-0.100000,,2013-06-01 08:32:00,
2013-06-01 02:42:00,46.0,27.0,30.22,SSW,198,13.0,14.0,48,-99.99,,,-99.99,0.000000,,2013-06-01 08:42:00,
2013-06-01 02:51:00,45.0,27.0,30.22,SSW,201,13.0,15.0,47,-99.99,,,-99.99,0.000000,,2013-06-01 08:51:00,
2013-06-01 03:01:00,44.0,27.0,30.22,SSW,195,9.0,11.0,51,-99.99,,,-99.99,0.000000,,2013-06-01 09:01:00,
2013-06-01 03:12:00,43.0,26.0,30.22,South,190,11.0,13.0,50,-99.99,,,-99.99,0.100000,,2013-06-01 09:12:00,
2013-06-01 03:21:00,44.0,26.0,30.22,SSW,194,10.0,11.0,49,-99.99,,,-99.99,-0.100000,,2013-06-01 09:21:00,
2013-06-01 03:33:00,44.0,25.0,30.22,SSW,193,11.0,12.0,48,-99.99,,,-99.99,-0.100000,,2013-06-01 09:33:00,
2013-06-01 03:42:00,44.0,26.0,30.22,SSW,194,11.0,12.0,48,-99.99,,,-99.99,-0.100000,,2013-06-01 09:42:00,
2013-06-01 03:53:00,45.0,26.0,30.22,SSW,193,12.0,14.0,47,-99.99,,,-99.99,0.000000,,2013-06-01 09:53:00,
2013-06-01 04:02:00,43.0,27.0,30.22,SSW,199,9.0,11.0,52,-99.99,,,-99.99,-0.100000,,2013-06-01 10:02:00,
2013-06-01 04:12:00,43.0,27.0,30.22,SSW,196,10.0,11.0,51,-99.99,,,-99.99,-0.100000,,2013-06-01 10:12:00,
2013-06-01 04:22:00,41.0,27.0,30.22,SSW,200,10.0,12.0,55,-99.99,,,-99.99,0.000000,,2013-06-01 10:22:00,
2013-06-01 04:32:00,41.0,26.0,30.22,SSW,198,11.0,11.0,53,-99.99,,,-99.99,-0.100000,,2013-06-01 10:32:00,
2013-06-01 04:42:00,42.0,25.0,30.22,South,183,10.0,12.0,52,-99.99,,,-99.99,0.000000,,2013-06-01 10:42:00,
2013-06-01 04:52:00,43.0,25.0,30.22,SSW,192,7.0,9.0,49,-99.99,,,-99.99,-0.100000,,2013-06-01 10:52:00,
2013-06-01 05:02:00,40.0,26.0,30.22,SSE,153,4.0,6.0,55,-99.99,,,-99.99,0.100000,,2013-06-01 11:02:00,
2013-06-01 05:11:00,41.0,26.0,30.23,ENE,63,2.0,3.0,56,-99.99,,,-99.99,0.000000,,2013-06-01 11:11:00,
2013-06-01 05:21:00,38.0,27.0,30.23,East,80,4.0,4.0,64,-99.99,,,-99.99,-0.100000,,2013-06-01 11:21:00,
2013-06-01 05:32:00,37.0,27.0,30.23,ENE,76,3.0,5.0,66,-99.99,,,-99.99,-0.100000,,2013-06-01 11:32:00,
2013-06-01 05:42:00,38.0,27.0,30.23,ENE,67,5.0,6.0,64,-99.99,,,-99.99,0.000000,,2013-06-01 11:42:00,
2013-06-01 05:52:00,37.0,27.0,30.23,ENE,77,3.0,4.0,67,-99.99,,,-99.99,0.200000,,2013-06-01 11:52:00,
2013-06-01 06:01:00,38.0,26.0,30.23,ENE,62,5.0,6.0,63,-99.99,,,-99.99,1.100000,,2013-06-01 12:01:00,
2013-06-01 06:11:00,36.0,26.0,30.23,East,86,3.0,4.0,65,-99.99,,,-99.99,3.400000,,2013-06-01 12:11:00,
2013-06-01 06:21:00,36.0,25.0,30.23,East,85,5.0,7.0,63,-99.99,,,-99.99,8.300000,,2013-06-01 12:21:00,
2013-06-01 06:32:00,36.0,25.0,30.23,East,82,5.0,7.0,63,-99.99,,,-99.99,15.100000,,2013-06-01 12:32:00,
2013-06-01 06:41:00,37.0,26.0,30.23,ENE,71,5.0,6.0,64,-99.99,,,-99.99,33.700001,,2013-06-01 12:41:00,
2013-06-01 06:52:00,38.0,26.0,30.23,NE,55,6.0,7.0,62,-99.99,,,-99.99,60.400002,,2013-06-01 12:52:00,
2013-06-01 07:01:00,39.0,26.0,30.23,ENE,59,4.0,6.0,59,-99.99,,,-99.99,74.500000,,2013-06-01 13:01:00,
2013-06-01 07:11:00,40.0,27.0,30.23,NE,42,4.0,4.0,59,-99.99,,,-99.99,117.300003,,2013-06-01 13:11:00,
2013-06-01 07:22:00,42.0,29.0,30.23,NNE,20,3.0,4.0,60,-99.99,,,-99.99,142.399994,,2013-06-01 13:22:00,
2013-06-01 07:32:00,44.0,29.0,30.24,NE,49,4.0,4.0,55,-99.99,,,-99.99,170.899994,,2013-06-01 13:32:00,
2013-06-01 07:42:00,45.0,30.0,30.24,West,280,1.0,2.0,55,-99.99,,,-99.99,200.100006,,2013-06-01 13:42:00,
2013-06-01 07:52:00,44.0,32.0,30.24,WSW,246,2.0,3.0,61,-99.99,,,-99.99,233.100006,,2013-06-01 13:52:00,
2013-06-01 08:01:00,45.0,31.0,30.24,SW,226,1.0,3.0,58,-99.99,,,-99.99,264.500000,,2013-06-01 14:01:00,
2013-06-01 08:11:00,46.0,30.0,30.24,SW,223,2.0,2.0,54,-99.99,,,-99.99,296.100006,,2013-06-01 14:11:00,
2013-06-01 08:21:00,47.0,31.0,30.24,West,263,2.0,4.0,54,-99.99,,,-99.99,329.200012,,2013-06-01 14:21:00,
2013-06-01 08:32:00,48.0,31.0,30.24,WNW,284,3.0,3.0,52,-99.99,,,-99.99,362.100006,,2013-06-01 14:32:00,
2013-06-01 08:42:00,49.0,32.0,30.24,WNW,287,3.0,4.0,51,-99.99,,,-99.99,395.799988,,2013-06-01 14:42:00,
2013-06-01 08:52:00,51.0,31.0,30.24,WNW,290,3.0,4.0,47,-99.99,,,-99.99,429.899994,,2013-06-01 14:52:00,
2013-06-01 09:01:00,52.0,30.0,30.24,WNW,301,4.0,5.0,43,-99.99,,,-99.99,462.700012,,2013-06-01 15:01:00,
2013-06-01 09:11:00,52.0,33.0,30.24,North,349,5.0,6.0,47,-99.99,,,-99.99,494.500000,,2013-06-01 15:11:00,
2013-06-01 09:21:00,53.0,32.0,30.24,NNW,338,4.0,6.0,46,-99.99,,,-99.99,528.299988,,2013-06-01 15:21:00,
2013-06-01 09:33:00,53.0,31.0,30.24,North,10,4.0,6.0,42,-99.99,,,-99.99,562.500000,,2013-06-01 15:33:00,
2013-06-01 09:42:00,54.0,32.0,30.24,North,350,4.0,6.0,42,-99.99,,,-99.99,593.299988,,2013-06-01 15:42:00,
2013-06-01 09:53:00,55.0,32.0,30.24,NNW,343,5.0,6.0,41,-99.99,,,-99.99,621.799988,,2013-06-01 15:53:00,
2013-06-01 10:03:00,56.0,33.0,30.24,NNW,348,6.0,8.0,41,-99.99,,,-99.99,651.200012,,2013-06-01 16:03:00,
2013-06-01 10:12:00,56.0,33.0,30.24,North,350,7.0,9.0,41,-99.99,,,-99.99,678.900024,,2013-06-01 16:12:00,
2013-06-01 10:22:00,57.0,30.0,30.24,NNW,334,6.0,9.0,34,-99.99,,,-99.99,708.799988,,2013-06-01 16:22:00,
2013-06-01 10:33:00,57.0,30.0,30.23,NNE,12,6.0,8.0,35,-99.99,,,-99.99,743.299988,,2013-06-01 16:33:00,
2013-06-01 10:42:00,58.0,31.0,30.23,North,4,4.0,9.0,37,-99.99,,,-99.99,768.599976,,2013-06-01 16:42:00,
2013-06-01 10:52:00,58.0,31.0,30.23,North,7,4.0,6.0,36,-99.99,,,-99.99,786.200012,,2013-06-01 16:52:00,
2013-06-01 11:02:00,59.0,30.0,30.22,WNW,290,4.0,7.0,33,-99.99,,,-99.99,808.000000,,2013-06-01 17:02:00,
2013-06-01 11:11:00,59.0,30.0,30.22,NNE,21,5.0,8.0,34,-99.99,,,-99.99,831.000000,,2013-06-01 17:11:00,
2013-06-01 11:21:00,59.0,30.0,30.22,NE,34,5.0,6.0,33,-99.99,,,-99.99,852.000000,,2013-06-01 17:21:00,
2013-06-01 11:32:00,60.0,32.0,30.22,NNW,329,5.0,7.0,34,-99.99,,,-99.99,874.000000,,2013-06-01 17:32:00,
2013-06-01 11:42:00,61.0,32.0,30.22,North,359,5.0,7.0,33,-99.99,,,-99.99,892.000000,,2013-06-01 17:42:00,
2013-06-01 11:52:00,61.0,32.0,30.21,North,11,6.0,9.0,33,-99.99,,,-99.99,910.000000,,2013-06-01 17:52:00,
2013-06-01 12:01:00,62.0,31.0,30.21,SW,235,2.0,3.0,31,-99.99,,,-99.99,929.000000,,2013-06-01 18:01:00,
2013-06-01 12:11:00,62.0,31.0,30.21,WNW,298,3.0,5.0,31,-99.99,,,-99.99,944.000000,,2013-06-01 18:11:00,
2013-06-01 12:21:00,63.0,31.0,30.20,ENE,63,3.0,6.0,30,-99.99,,,-99.99,960.000000,,2013-06-01 18:21:00,
2013-06-01 12:32:00,64.0,32.0,30.20,WNW,295,3.0,7.0,30,-99.99,,,-99.99,972.000000,,2013-06-01 18:32:00,
2013-06-01 12:41:00,64.0,31.0,30.19,WSW,241,4.0,8.0,29,-99.99,,,-99.99,983.000000,,2013-06-01 18:41:00,
2013-06-01 12:51:00,65.0,32.0,30.19,ENE,68,3.0,7.0,29,-99.99,,,-99.99,994.000000,,2013-06-01 18:51:00,
2013-06-01 13:01:00,64.0,32.0,30.18,ENE,76,4.0,6.0,30,-99.99,,,-99.99,1000.000000,,2013-06-01 19:01:00,
2013-06-01 13:11:00,65.0,33.0,30.18,NNE,23,4.0,7.0,30,-99.99,,,-99.99,1008.000000,,2013-06-01 19:11:00,
2013-06-01 13:21:00,66.0,34.0,30.17,North,4,5.0,8.0,30,-99.99,,,-99.99,1013.000000,,2013-06-01 19:21:00,
2013-06-01 13:32:00,67.0,32.0,30.17,South,178,4.0,8.0,27,-99.99,,,-99.99,1015.000000,,2013-06-01 19:32:00,
2013-06-01 13:41:00,67.0,31.0,30.16,WSW,247,4.0,9.0,26,-99.99,,,-99.99,1023.000000,,2013-06-01 19:41:00,
2013-06-01 13:52:00,68.0,33.0,30.16,West,270,6.0,11.0,27,-99.99,,,-99.99,1019.000000,,2013-06-01 19:52:00,
2013-06-01 14:01:00,68.0,31.0,30.16,West,266,5.0,10.0,25,-99.99,,,-99.99,1015.000000,,2013-06-01 20:01:00,
2013-06-01 14:11:00,69.0,28.0,30.15,West,269,9.0,12.0,22,-99.99,,,-99.99,1015.000000,,2013-06-01 20:11:00,
2013-06-01 14:21:00,70.0,29.0,30.15,West,272,9.0,13.0,22,-99.99,,,-99.99,1014.000000,,2013-06-01 20:21:00,
2013-06-01 14:32:00,70.0,27.0,30.14,NW,305,10.0,17.0,19,-99.99,,,-99.99,1005.000000,,2013-06-01 20:32:00,
2013-06-01 14:41:00,71.0,26.0,30.14,West,280,10.0,15.0,18,-99.99,,,-99.99,998.000000,,2013-06-01 20:41:00,
2013-06-01 14:51:00,70.0,27.0,30.14,WNW,290,9.0,13.0,19,-99.99,,,-99.99,985.000000,,2013-06-01 20:51:00,
2013-06-01 15:01:00,71.0,29.0,30.13,NW,314,10.0,15.0,21,-99.99,,,-99.99,974.000000,,2013-06-01 21:01:00,
2013-06-01 15:11:00,72.0,28.0,30.13,West,275,10.0,14.0,20,-99.99,,,-99.99,961.000000,,2013-06-01 21:11:00,
2013-06-01 15:21:00,71.0,26.0,30.12,NW,320,12.0,17.0,19,-99.99,,,-99.99,949.000000,,2013-06-01 21:21:00,
2013-06-01 15:33:00,70.0,28.0,30.12,NW,325,10.0,16.0,20,-99.99,,,-99.99,932.000000,,2013-06-01 21:33:00,
2013-06-01 15:42:00,71.0,28.0,30.12,NW,315,9.0,12.0,20,-99.99,,,-99.99,915.000000,,2013-06-01 21:42:00,
2013-06-01 15:53:00,71.0,29.0,30.12,WSW,249,5.0,9.0,21,-99.99,,,-99.99,897.000000,,2013-06-01 21:53:00,
2013-06-01 16:02:00,71.0,30.0,30.11,West,274,6.0,12.0,22,-99.99,,,-99.99,877.000000,,2013-06-01 22:02:00,
2013-06-01 16:12:00,71.0,31.0,30.11,West,262,8.0,11.0,22,-99.99,,,-99.99,855.000000,,2013-06-01 22:12:00,
2013-06-01 16:22:00,71.0,32.0,30.11,West,262,8.0,12.0,23,-99.99,,,-99.99,831.000000,,2013-06-01 22:22:00,
2013-06-01 16:33:00,71.0,32.0,30.10,West,278,4.0,11.0,23,-99.99,,,-99.99,809.000000,,2013-06-01 22:33:00,
2013-06-01 16:42:00,71.0,33.0,30.10,West,271,6.0,8.0,24,-99.99,,,-99.99,783.000000,,2013-06-01 22:42:00,
2013-06-01 16:52:00,71.0,33.0,30.10,WSW,254,4.0,8.0,24,-99.99,,,-99.99,756.099976,,2013-06-01 22:52:00,
2013-06-01 17:02:00,72.0,33.0,30.09,SW,233,8.0,11.0,24,-99.99,,,-99.99,730.400024,,2013-06-01 23:02:00,
2013-06-01 17:11:00,72.0,32.0,30.09,WSW,257,7.0,9.0,23,-99.99,,,-99.99,703.799988,,2013-06-01 23:11:00,
2013-06-01 17:21:00,72.0,32.0,30.08,WSW,254,6.0,10.0,22,-99.99,,,-99.99,678.900024,,2013-06-01 23:21:00,
2013-06-01 17:32:00,73.0,32.0,30.08,SW,221,7.0,10.0,22,-99.99,,,-99.99,645.700012,,2013-06-01 23:32:00,
2013-06-01 17:42:00,72.0,32.0,30.08,WSW,256,8.0,11.0,22,-99.99,,,-99.99,620.000000,,2013-06-01 23:42:00,
2013-06-01 17:52:00,72.0,32.0,30.08,WSW,252,7.0,11.0,22,-99.99,,,-99.99,556.599976,,2013-06-01 23:52:00,
2013-06-01 18:02:00,73.0,34.0,30.07,WSW,249,7.0,11.0,24,-99.99,,,-99.99,539.599976,,2013-06-02 00:02:00,
2013-06-01 18:11:00,73.0,32.0,30.07,WSW,254,8.0,11.0,22,-99.99,,,-99.99,528.099976,,2013-06-02 00:11:00,
2013-06-01 18:21:00,72.0,32.0,30.07,WSW,253,7.0,10.0,23,-99.99,,,-99.99,498.799988,,2013-06-02 00:21:00,
2013-06-01 18:31:00,73.0,31.0,30.06,West,262,8.0,10.0,21,-99.99,,,-99.99,466.799988,,2013-06-02 00:31:00,
2013-06-01 18:41:00,72.0,32.0,30.06,WSW,257,8.0,11.0,22,-99.99,,,-99.99,417.500000,,2013-06-02 00:41:00,
2013-06-01 18:51:00,72.0,32.0,30.05,West,260,8.0,10.0,22,-99.99,,,-99.99,389.899994,,2013-06-02 00:51:00,
2013-06-01 19:01:00,72.0,32.0,30.05,WSW,241,6.0,8.0,22,-99.99,,,-99.99,348.399994,,2013-06-02 01:01:00,
2013-06-01 19:11:00,72.0,32.0,30.04,WSW,242,6.0,10.0,23,-99.99,,,-99.99,318.600006,,2013-06-02 01:11:00,
2013-06-01 19:21:00,72.0,33.0,30.04,WSW,255,5.0,7.0,24,-99.99,,,-99.99,282.500000,,2013-06-02 01:21:00,
2013-06-01 19:32:00,72.0,33.0,30.04,WSW,254,4.0,6.0,24,-99.99,,,-99.99,238.199997,,2013-06-02 01:32:00,
2013-06-01 19:41:00,71.0,32.0,30.03,West,259,4.0,6.0,23,-99.99,,,-99.99,240.399994,,2013-06-02 01:41:00,
2013-06-01 19:52:00,71.0,31.0,30.03,West,263,4.0,5.0,22,-99.99,,,-99.99,152.899994,,2013-06-02 01:52:00,
2013-06-01 20:01:00,71.0,30.0,30.03,West,274,4.0,5.0,22,-99.99,,,-99.99,185.800003,,2013-06-02 02:01:00,
2013-06-01 20:11:00,71.0,28.0,30.03,WSW,256,4.0,5.0,20,-99.99,,,-99.99,164.100006,,2013-06-02 02:11:00,
2013-06-01 20:21:00,71.0,30.0,30.03,WSW,258,4.0,4.0,22,-99.99,,,-99.99,134.199997,,2013-06-02 02:21:00,
2013-06-01 20:32:00,70.0,32.0,30.03,WSW,241,3.0,4.0,24,-99.99,,,-99.99,74.900002,,2013-06-02 02:32:00,
2013-06-01 20:41:00,67.0,37.0,30.03,SW,236,3.0,3.0,33,-99.99,,,-99.99,46.000000,,2013-06-02 02:41:00,
2013-06-01 20:51:00,67.0,35.0,30.03,SW,227,3.0,3.0,31,-99.99,,,-99.99,16.900000,,2013-06-02 02:51:00,
2013-06-01 21:01:00,64.0,38.0,30.02,SW,221,2.0,3.0,37,-99.99,,,-99.99,11.000000,,2013-06-02 03:01:00,
2013-06-01 21:11:00,65.0,32.0,30.02,ESE,103,6.0,7.0,29,-99.99,,,-99.99,4.900000,,2013-06-02 03:11:00,
2013-06-01 21:21:00,63.0,33.0,30.02,SE,124,4.0,5.0,33,-99.99,,,-99.99,2.000000,,2013-06-02 03:21:00,
2013-06-01 21:33:00,61.0,35.0,30.02,SE,145,4.0,5.0,37,-99.99,,,-99.99,0.600000,,2013-06-02 03:33:00,
2013-06-01 21:43:00,60.0,32.0,30.02,ESE,115,5.0,6.0,34,-99.99,,,-99.99,0.200000,,2013-06-02 03:43:00,
2013-06-01 21:52:00,59.0,31.0,30.02,ESE,118,5.0,6.0,34,-99.99,,,-99.99,0.000000,,2013-06-02 03:52:00,
2013-06-01 22:02:00,58.0,32.0,30.02,SSE,148,6.0,8.0,37,-99.99,,,-99.99,-0.100000,,2013-06-02 04:02:00,
2013-06-01 22:12:00,60.0,31.0,30.02,SSE,159,8.0,9.0,34,-99.99,,,-99.99,-0.100000,,2013-06-02 04:12:00,
2013-06-01 22:23:00,60.0,32.0,30.02,SSE,158,7.0,10.0,35,-99.99,,,-99.99,-0.100000,,2013-06-02 04:23:00,
2013-06-01 22:32:00,59.0,32.0,30.02,SE,143,5.0,7.0,37,-99.99,,,-99.99,-0.200000,,2013-06-02 04:32:00,
2013-06-01 22:42:00,60.0,30.0,30.02,SSE,161,8.0,11.0,33,-99.99,,,-99.99,-0.100000,,2013-06-02 04:42:00,
2013-06-01 22:52:00,62.0,28.0,30.02,SSE,160,10.0,12.0,28,-99.99,,,-99.99,-0.100000,,2013-06-02 04:52:00,
2013-06-01 23:02:00,61.0,28.0,30.02,SSE,156,12.0,14.0,28,-99.99,,,-99.99,-0.100000,,2013-06-02 05:02:00,
2013-06-01 23:11:00,62.0,28.0,30.02,SSE,158,12.0,13.0,28,-99.99,,,-99.99,-0.200000,,2013-06-02 05:11:00,
2013-06-01 23:22:00,63.0,28.0,30.02,SSE,162,13.0,16.0,26,-99.99,,,-99.99,-0.100000,,2013-06-02 05:22:00,
2013-06-01 23:32:00,63.0,28.0,30.01,SSE,164,14.0,18.0,26,-99.99,,,-99.99,-0.100000,,2013-06-02 05:32:00,
2013-06-01 23:42:00,63.0,27.0,30.01,SSE,164,15.0,19.0,26,-99.99,,,-99.99,-0.100000,,2013-06-02 05:42:00,
2013-06-01 23:51:00,63.0,27.0,30.01,SSE,166,12.0,16.0,26,-99.99,,,-99.99,0.000000,,2013-06-02 05:51:00,